Date,TemperatureHighF,TemperatureAvgF,TemperatureLowF,DewpointHighF,DewpointAvgF,DewpointLowF,HumidityHigh,HumidityAvg,HumidityLow,PressureMaxIn,PressureMinIn,WindSpeedMaxMPH,WindSpeedAvgMPH,GustSpeedMaxMPH,PrecipitationSumIn
2013-1-1,49,44,43,16,16,15,33,32,26,0.00,40.00,0,-999,0,0.00
2013-1-2,55,42,15,20,18,12,90,45,25,0.00,40.00,0,-999,0,0.00
2013-1-3,49,45,44,30,29,29,54,53,47,0.00,40.00,0,-999,0,0.00
2013-1-4,50,48,48,22,21,21,34,34,32,0.00,40.00,0,-999,0,0.00
2013-1-5,59,57,57,13,10,9,15,14,14,0.00,40.00,0,-999,0,0.00
2013-1-6,58,56,56,19,19,18,23,23,21,0.00,40.00,0,-999,0,0.00
2013-1-7,60,57,56,13,13,11,17,16,14,0.00,40.00,0,-999,0,0.00
2013-1-8,58,56,56,18,17,17,21,21,20,0.00,40.00,0,-999,0,0.00
2013-1-9,64,61,60,9,8,8,12,12,11,0.00,40.00,0,-999,0,0.00
2013-1-10,63,61,60,18,16,14,19,17,15,0.00,40.00,0,-999,0,0.00
2013-1-11,44,41,40,11,10,10,28,28,25,0.00,40.00,0,-999,0,0.00
2013-1-12,39,38,38,1,1,-1,20,20,17,0.00,40.00,0,-999,0,0.00
2013-1-13,44,41,40,2,2,0,19,18,15,0.00,40.00,0,-999,0,0.00
2013-1-14,42,40,39,1,1,-1,19,18,15,0.00,40.00,0,-999,0,0.00
2013-1-15,40,39,39,-4,-4,-5,15,15,14,0.00,40.00,0,-999,0,0.00
2013-1-16,57,55,55,4,3,3,12,12,11,0.00,40.00,0,-999,0,0.00
2013-1-17,64,62,61,11,10,10,13,13,12,0.00,40.00,0,-999,0,0.00
2013-1-18,69,64,63,10,10,10,11,11,10,0.00,40.00,0,-999,0,0.00
2013-1-19,72,70,70,21,21,21,15,15,14,0.00,40.00,0,-999,0,0.00
2013-1-20,74,69,68,25,25,25,19,18,16,0.00,40.00,0,-999,0,0.00
2013-1-21,75,73,73,25,25,25,16,16,15,0.00,40.00,0,-999,0,0.00
2013-1-22,75,73,73,20,19,19,13,13,12,0.00,40.00,0,-999,0,0.00
2013-1-23,74,72,72,24,23,23,15,15,15,0.00,40.00,0,-999,0,0.00
2013-1-24,62,61,61,38,38,36,42,41,38,0.00,40.00,0,-999,0,0.00
2013-1-25,71,70,69,39,38,38,32,31,30,0.00,40.00,0,-999,0,0.00
2013-1-26,58,58,58,47,46,46,65,64,64,0.00,40.00,0,-999,0,0.00
2013-1-27,62,60,60,38,38,38,44,43,40,0.00,40.00,0,-999,0,0.00
2013-1-28,54,47,46,37,36,32,70,66,44,0.00,40.00,0,-999,0,0.00
2013-1-29,46,45,45,15,15,15,30,30,28,0.00,40.00,0,-999,0,0.00
2013-1-30,52,42,18,15,10,8,89,37,16,0.00,40.00,0,-999,0,0.00
2013-1-31,58,57,57,21,21,21,24,24,23,0.00,40.00,0,-999,0,0.00
2013-2-1,70,68,67,16,15,15,12,12,12,0.00,40.00,0,-999,0,0.00
2013-2-2,73,71,71,11,10,10,9,9,8,0.00,40.00,0,-999,0,0.00
2013-2-3,60,60,60,36,34,34,40,37,36,0.00,40.00,0,-999,0,0.00
2013-2-4,66,66,66,32,31,31,27,26,26,0.00,40.00,0,-999,0,0.00
2013-2-5,70,69,69,29,28,28,22,21,21,0.00,40.00,0,-999,0,0.00
2013-2-6,66,66,65,30,29,29,26,25,25,0.00,40.00,0,-999,0,0.00
2013-2-7,68,66,66,21,21,20,17,17,16,0.00,40.00,0,-999,0,0.00
2013-2-8,64,62,61,19,9,3,19,13,8,0.00,40.00,0,-999,0,0.00
2013-2-9,50,48,48,19,15,14,29,25,24,0.00,40.00,0,-999,0,0.00
2013-2-10,57,55,55,2,-1,-2,10,9,9,0.00,40.00,0,-999,0,0.00
2013-2-11,46,43,42,31,30,22,63,59,37,0.00,40.00,0,-999,0,0.00
2013-2-12,49,48,47,20,19,17,33,31,30,0.00,40.00,0,-999,0,0.00
2013-2-13,58,58,58,9,9,8,13,13,13,0.00,40.00,0,-999,0,0.00
2013-2-14,62,60,60,13,13,13,15,15,14,0.00,40.00,0,-999,0,0.00
2013-2-15,67,66,66,4,4,2,8,8,7,0.00,40.00,0,-999,0,0.00
2013-2-16,69,69,69,6,6,6,8,8,8,0.00,40.00,0,-999,0,0.00
2013-2-17,70,68,67,4,4,4,8,8,7,0.00,40.00,0,-999,0,0.00
2013-2-18,66,66,66,6,5,5,9,8,8,0.00,40.00,0,-999,0,0.00
2013-2-19,61,59,59,34,34,34,38,38,35,0.00,40.00,0,-999,0,0.00
2013-2-20,48,38,31,30,24,16,93,66,27,0.00,40.00,0,-999,0,0.00
2013-2-21,47,46,46,25,25,24,44,43,40,0.00,40.00,0,-999,0,0.00
2013-2-22,50,50,50,28,26,26,43,40,39,0.00,40.00,0,-999,0,0.00
2013-2-23,64,63,63,19,17,17,17,16,16,0.00,40.00,0,-999,0,0.00
2013-2-24,44,42,42,-1,-1,-1,16,16,14,0.00,40.00,0,-999,0,0.00
2013-2-25,57,55,55,5,4,4,12,12,12,0.00,40.00,0,-999,0,0.00
2013-2-26,61,60,59,7,7,5,12,11,10,0.00,40.00,0,-999,0,0.00
2013-2-27,61,58,58,3,1,1,9,9,9,0.00,40.00,0,-999,0,0.00
2013-2-28,65,62,62,0,-2,-3,7,7,7,0.00,40.00,0,-999,0,0.00
2013-3-1,72,71,71,12,12,12,10,10,9,0.00,40.00,0,-999,0,0.00
2013-3-2,80,80,80,6,6,6,5,5,5,0.00,40.00,0,-999,0,0.00
2013-3-4,70,63,58,22,14,6,16,14,12,0.00,40.00,0,-999,0,0.00
2013-3-5,73,72,72,16,16,14,11,11,10,0.00,40.00,0,-999,0,0.00
2013-3-6,80,78,78,21,18,17,11,10,10,0.00,40.00,0,-999,0,0.00
2013-3-7,73,71,71,17,16,16,12,12,12,0.00,40.00,0,-999,0,0.00
2013-3-8,54,52,52,38,38,38,59,58,54,0.00,40.00,0,-999,0,0.00
2013-3-9,48,48,48,31,29,29,52,48,47,0.00,40.00,0,-999,0,0.00
2013-3-10,61,59,59,24,24,24,25,25,24,0.00,40.00,0,-999,0,0.00
2013-3-11,71,71,71,10,10,9,9,9,8,0.00,40.00,0,-999,0,0.00
2013-3-12,79,78,78,14,12,11,8,7,7,0.00,40.00,0,-999,0,0.00
2013-3-13,83,83,83,11,11,11,6,6,6,0.00,40.00,0,-999,0,0.00
2013-3-14,87,86,86,8,7,7,4,4,4,0.00,40.00,0,-999,0,0.00
2013-3-15,89,87,87,8,7,7,4,4,4,0.00,40.00,0,-999,0,0.00
2013-3-16,83,81,81,8,4,3,5,4,4,0.00,40.00,0,-999,0,0.00
2013-3-17,78,76,76,15,15,15,9,9,9,0.00,40.00,0,-999,0,0.00
2013-3-18,80,78,78,14,14,14,8,8,8,0.00,40.00,0,-999,0,0.00
2013-3-19,76,74,74,21,21,21,13,13,12,0.00,40.00,0,-999,0,0.00
2013-3-20,77,77,76,22,22,22,13,12,12,0.00,40.00,0,-999,0,0.00
2013-3-21,74,73,73,16,16,14,11,11,10,0.00,40.00,0,-999,0,0.00
2013-3-22,75,74,74,18,16,16,11,11,11,0.00,40.00,0,-999,0,0.00
2013-3-23,70,68,68,15,12,12,11,11,11,0.00,40.00,0,-999,0,0.00
2013-3-24,72,71,71,7,7,6,8,8,7,0.00,40.00,0,-999,0,0.00
2013-3-25,75,74,74,10,9,9,8,8,8,0.00,40.00,0,-999,0,0.00
2013-3-26,82,80,79,10,10,10,7,7,6,0.00,40.00,0,-999,0,0.00
2013-3-27,79,77,77,18,18,18,10,10,10,0.00,40.00,0,-999,0,0.00
2013-3-28,81,78,77,16,16,16,9,9,8,0.00,40.00,0,-999,0,0.00
2013-3-29,84,82,82,20,20,17,10,10,8,0.00,40.00,0,-999,0,0.00
2013-3-30,77,77,77,19,18,16,11,11,10,0.00,40.00,0,-999,0,0.00
2013-3-31,82,80,80,21,20,20,10,10,10,0.00,40.00,0,-999,0,0.00
2013-4-1,82,81,81,17,16,14,9,9,7,0.00,40.00,0,-999,0,0.00
2013-4-2,74,73,73,11,11,9,9,9,8,0.00,40.00,0,-999,0,0.00
2013-4-3,77,77,76,17,17,17,10,10,10,0.00,40.00,0,-999,0,0.00
2013-4-4,83,81,81,12,11,11,7,7,6,0.00,40.00,0,-999,0,0.00
2013-4-5,84,83,83,17,17,17,8,8,8,0.00,40.00,0,-999,0,0.00
2013-4-6,83,81,81,23,23,22,11,11,10,0.00,40.00,0,-999,0,0.00
2013-4-7,82,81,81,20,20,19,10,10,9,0.00,40.00,0,-999,0,0.00
2013-4-8,76,70,65,32,26,21,29,20,14,0.00,40.00,0,-999,0,0.00
2013-4-9,60,60,60,13,-72,-100,15,15,15,0.00,40.00,0,-999,0,0.00
2013-4-10,64,63,63,19,18,18,17,17,17,0.00,40.00,0,-999,0,0.00
2013-4-11,75,75,75,16,14,14,10,9,9,0.00,40.00,0,-999,0,0.00
2013-4-12,75,75,75,16,16,16,10,10,10,0.00,40.00,0,-999,0,0.00
2013-4-13,82,80,80,18,16,16,9,9,9,0.00,40.00,0,-999,0,0.00
2013-4-14,79,78,78,25,25,23,13,13,12,0.00,40.00,0,-999,0,0.00
2013-4-15,80,79,79,22,22,21,12,12,11,0.00,40.00,0,-999,0,0.00
2013-4-16,79,78,77,18,18,16,11,10,9,0.00,40.00,0,-999,0,0.00
2013-4-17,65,64,64,14,12,12,13,13,13,0.00,40.00,0,-999,0,0.00
2013-4-18,66,65,65,2,-2,-3,7,6,6,0.00,40.00,0,-999,0,0.00
2013-4-19,77,77,76,-3,-4,-4,4,3,3,0.00,40.00,0,-999,0,0.00
2013-4-20,81,79,79,6,6,6,5,5,5,0.00,40.00,0,-999,0,0.00
2013-4-21,86,86,86,11,9,9,5,5,5,0.00,40.00,0,-999,0,0.00
2013-4-22,88,86,86,10,10,9,5,5,5,0.00,40.00,0,-999,0,0.00
2013-4-23,84,84,84,15,14,14,7,7,7,0.00,40.00,0,-999,0,0.00
2013-4-24,87,84,84,16,14,13,7,6,6,0.00,40.00,0,-999,0,0.00
2013-4-25,80,78,76,20,16,13,12,10,8,0.00,40.00,0,-999,0,0.00
2013-4-26,84,82,82,7,4,4,5,4,4,0.00,40.00,0,-999,0,0.00
2013-4-27,85,85,85,11,11,10,6,6,5,0.00,40.00,0,-999,0,0.00
2013-4-28,89,87,87,7,7,7,4,4,4,0.00,40.00,0,-999,0,0.00
2013-4-29,90,89,89,10,10,10,4,4,4,0.00,40.00,0,-999,0,0.00
2013-4-30,88,88,88,14,14,14,6,6,6,0.00,40.00,0,-999,0,0.00
2013-5-1,88,87,87,15,14,14,6,6,6,0.00,40.00,0,-999,0,0.00
2013-5-2,84,83,83,19,19,18,9,9,8,0.00,40.00,0,-999,0,0.00
2013-5-3,82,82,81,12,12,11,7,7,7,0.00,40.00,0,-999,0,0.00
2013-5-4,86,84,83,22,22,20,10,10,9,0.00,40.00,0,-999,0,0.00
2013-5-6,80,75,68,37,31,27,32,21,14,0.00,40.00,0,-999,0,0.00
2013-5-7,78,78,77,23,23,21,13,13,12,0.00,40.00,0,-999,0,0.00
2013-5-8,80,78,78,22,22,20,12,12,10,0.00,40.00,0,-999,0,0.00
2013-5-9,81,78,77,19,19,19,11,11,10,0.00,40.00,0,-999,0,0.00
2013-5-10,73,72,72,29,28,25,20,19,16,0.00,40.00,0,-999,0,0.00
2013-5-11,79,79,79,29,28,28,15,15,15,0.00,40.00,0,-999,0,0.00
2013-5-12,84,82,82,23,23,22,11,11,10,0.00,40.00,0,-999,0,0.00
2013-5-13,87,86,86,17,14,14,7,6,6,0.00,40.00,0,-999,0,0.00
2013-5-14,90,89,89,23,23,23,9,9,8,0.00,40.00,0,-999,0,0.00
2013-5-15,91,91,90,28,28,28,10,10,10,0.00,40.00,0,-999,0,0.00
2013-5-16,92,82,64,17,16,15,15,9,6,0.00,40.00,0,-999,0,0.00
2013-5-17,88,79,61,23,22,16,23,13,6,0.00,40.00,0,-999,0,0.00
2013-5-18,86,85,85,20,20,20,9,9,9,0.00,40.00,0,-999,0,0.00
2013-5-20,89,85,81,29,24,21,15,11,9,0.00,40.00,0,-999,0,0.00
2013-5-21,92,84,54,15,12,9,16,7,5,0.00,40.00,0,-999,0,0.00
2013-5-22,94,76,45,21,17,9,28,12,5,0.00,40.00,0,-999,0,0.00
2013-5-23,94,77,41,27,17,12,36,13,4,0.00,40.00,0,-999,0,0.00
2013-5-24,95,77,43,37,16,-100,44,14,4,0.00,40.00,0,-999,0,0.00
2013-5-25,93,76,41,29,18,8,34,13,5,0.00,40.00,0,-999,0,0.00
2013-5-26,93,77,39,28,15,10,39,12,4,0.00,40.00,0,-999,0,0.00
2013-5-27,83,62,40,25,16,6,34,19,5,0.00,40.00,0,-999,0,0.00
2013-5-30,94,79,51,50,33,26,64,23,9,0.00,40.00,0,-999,0,0.00
2013-5-31,96,79,54,52,38,31,62,26,10,0.00,40.00,0,-999,0,0.00
2013-6-1,101,82,46,39,29,22,55,20,6,0.00,40.00,0,-999,0,0.00
2013-6-2,102,85,52,40,30,25,42,16,7,0.00,40.00,0,-999,0,0.00
2013-6-3,98,83,47,41,26,20,51,15,6,0.00,40.00,0,-999,0,0.00
2013-6-4,98,82,50,42,31,25,48,18,8,0.00,40.00,0,-999,0,0.00
2013-6-5,98,78,48,35,22,14,47,16,4,0.00,40.00,0,-999,0,0.00
2013-6-6,99,74,43,26,20,13,35,16,4,0.00,40.00,0,-999,0,0.00
2013-6-7,103,77,49,32,25,21,38,18,5,0.00,40.00,0,-999,0,0.00
2013-6-8,100,82,56,36,25,21,30,14,6,0.00,40.00,0,-999,0,0.00
2013-6-9,100,80,59,39,28,20,44,18,6,0.00,40.00,0,-999,0,0.00
2013-6-10,102,76,48,37,25,20,38,19,6,0.00,40.00,0,-999,0,0.00
2013-6-11,104,81,50,41,25,20,45,16,6,0.00,40.00,0,-999,0,0.00
2013-6-12,104,88,54,43,23,-100,38,14,7,0.00,40.00,0,-999,0,0.00
2013-6-13,99,88,66,53,38,28,54,20,10,0.00,40.00,0,-999,0,0.00
2013-6-14,97,81,65,54,46,-100,76,34,15,0.00,40.00,0,-999,0,0.30
2013-6-15,92,75,63,63,54,48,83,51,23,0.00,40.00,0,-999,0,0.01
2013-6-16,96,84,56,58,50,34,92,37,12,0.00,40.00,0,-999,0,0.00
2013-6-17,99,89,59,41,29,20,44,13,7,0.00,40.00,0,-999,0,0.00
2013-6-18,101,91,66,34,11,-100,21,7,3,0.00,40.00,0,-999,0,0.00
2013-6-19,101,87,49,36,25,16,41,13,6,0.00,40.00,0,-999,0,0.00
2013-6-20,101,75,44,34,15,-100,43,18,3,0.00,40.00,0,-999,0,0.00
2013-6-24,97,89,71,40,32,26,24,13,10,0.00,40.00,0,-999,0,0.00
2013-6-25,98,89,62,45,27,21,46,12,7,0.00,40.00,0,-999,0,0.00
2013-6-26,98,91,63,39,27,21,41,11,8,0.00,40.00,0,-999,0,0.00
2013-6-27,102,92,65,47,34,29,43,15,8,0.00,40.00,0,-999,0,0.00
2013-6-28,106,95,77,42,31,28,29,11,7,0.00,40.00,0,-999,0,0.00
2013-6-29,102,94,77,48,6,-100,46,17,8,0.00,40.00,0,-999,0,0.00
2013-6-30,101,89,70,62,45,38,75,28,11,0.00,40.00,0,-999,0,0.09
2013-7-1,100,83,67,63,53,39,77,43,14,0.00,40.00,0,-999,0,0.00
2013-7-2,95,81,63,62,53,45,89,44,18,0.00,40.00,0,-999,0,0.06
2013-7-3,97,82,61,58,48,-100,78,37,16,0.00,40.00,0,-999,0,0.00
2013-7-4,100,85,69,59,50,41,70,35,15,0.00,40.00,0,-999,0,0.00
2013-7-5,97,76,67,63,58,51,79,54,22,0.00,40.00,0,-999,0,0.00
2013-7-6,101,78,61,62,56,47,88,53,16,0.00,40.00,0,-999,0,0.00
2013-7-7,102,79,63,66,56,43,83,53,13,0.00,40.00,0,-999,0,0.04
2013-7-8,99,81,67,67,59,49,90,52,18,0.00,40.00,0,-999,0,0.00
2013-7-9,95,79,68,67,62,54,91,61,26,0.00,40.00,0,-999,0,0.04
2013-7-11,87,76,69,67,64,60,93,71,43,0.00,40.00,0,-999,0,0.00
2013-7-12,91,77,64,68,61,52,94,64,27,0.00,40.00,0,-999,0,0.05
2013-7-13,95,78,67,63,60,53,85,59,24,0.00,40.00,0,-999,0,0.03
2013-7-14,95,79,65,66,60,51,91,57,22,0.00,40.00,0,-999,0,0.00
2013-7-15,94,79,65,70,61,56,88,59,28,0.00,40.00,0,-999,0,0.25
2013-7-16,83,70,66,66,64,61,93,85,47,0.00,40.00,0,-999,0,0.16
2013-7-17,88,76,64,66,58,51,94,59,28,0.00,40.00,0,-999,0,0.00
2013-7-18,83,75,62,60,57,54,85,54,38,0.00,40.00,0,-999,0,0.00
2013-7-19,76,71,66,68,63,58,89,74,57,0.00,40.00,0,-999,0,0.10
2013-7-20,81,72,64,69,64,62,93,75,56,0.00,40.00,0,-999,0,0.00
2013-7-21,89,76,66,65,61,56,88,63,32,0.00,40.00,0,-999,0,0.00
2013-7-22,88,75,64,67,61,56,82,65,34,0.00,40.00,0,-999,0,0.00
2013-7-23,90,76,64,65,61,54,91,64,30,0.00,40.00,0,-999,0,0.38
2013-7-24,86,74,66,68,65,61,92,75,44,0.00,40.00,0,-999,0,0.03
2013-7-25,84,73,66,67,65,58,92,77,54,0.00,40.00,0,-999,0,0.00
2013-7-26,89,72,63,68,65,60,93,80,37,0.00,40.00,0,-999,0,0.09
2013-7-27,87,73,64,69,64,59,94,76,39,0.00,40.00,0,-999,0,0.03
2013-7-28,95,79,64,66,56,45,93,54,21,0.00,40.00,0,-999,0,0.00
2013-7-29,95,83,61,63,52,47,89,38,21,0.00,40.00,0,-999,0,0.00
2013-7-30,93,78,61,62,54,48,84,47,21,0.00,40.00,0,-999,0,0.00
2013-7-31,92,83,70,65,57,51,75,43,26,0.00,40.00,0,-999,0,0.00
2013-8-1,78,70,65,66,63,59,91,77,59,0.00,40.00,0,-999,0,0.05
2013-8-2,90,73,62,65,62,59,93,70,36,0.00,40.00,0,-999,0,0.00
2013-8-3,95,78,57,63,55,48,91,50,20,0.00,40.00,0,-999,0,0.00
2013-8-4,91,80,69,64,58,50,69,49,27,0.00,40.00,0,-999,0,0.00
2013-8-5,84,72,64,66,61,57,92,71,39,0.00,40.00,0,-999,0,0.39
2013-8-6,81,69,60,64,61,58,94,76,45,0.00,40.00,0,-999,0,0.00
2013-8-7,88,72,56,63,55,46,94,60,25,0.00,40.00,0,-999,0,0.00
2013-8-8,93,77,55,59,46,-100,91,46,13,0.00,40.00,0,-999,0,0.00
2013-8-9,95,78,55,57,48,42,88,42,16,0.00,40.00,0,-999,0,0.00
2013-8-10,95,77,60,58,49,38,75,41,16,0.00,40.00,0,-999,0,0.00
2013-8-11,91,76,60,61,58,55,83,56,29,0.00,40.00,0,-999,0,0.00
2013-8-12,94,75,59,69,55,-100,88,63,24,0.00,40.00,0,-999,0,0.03
2013-8-13,95,80,57,65,55,49,92,50,24,0.00,40.00,0,-999,0,0.00
2013-8-14,96,76,64,64,59,51,88,59,23,0.00,40.00,0,-999,0,0.00
2013-8-15,95,79,65,63,57,50,83,53,22,0.00,40.00,0,-999,0,0.00
2013-8-16,96,84,60,68,55,43,95,45,16,0.00,40.00,0,-999,0,0.00
2013-8-17,99,82,62,64,53,42,88,46,14,0.00,40.00,0,-999,0,0.00
2013-8-18,100,83,63,59,52,44,74,37,15,0.00,40.00,0,-999,0,0.00
2013-8-19,97,79,62,62,52,43,80,46,17,0.00,40.00,0,-999,0,0.00
2013-8-20,94,78,66,64,57,51,84,51,25,0.00,40.00,0,-999,0,0.01
2013-8-21,89,75,64,65,59,54,90,61,31,0.00,40.00,0,-999,0,0.00
2013-8-22,91,76,61,64,58,48,93,60,28,0.00,40.00,0,-999,0,0.01
2013-8-23,93,80,56,63,52,42,91,46,17,0.00,40.00,0,-999,0,0.25
2013-8-24,81,71,62,65,63,60,93,77,55,0.00,40.00,0,-999,0,0.37
2013-8-25,88,74,66,65,63,60,92,71,38,0.00,40.00,0,-999,0,0.00
2013-8-26,93,78,66,66,59,49,92,59,24,0.00,40.00,0,-999,0,0.00
2013-8-27,90,72,58,64,58,52,93,67,27,0.00,40.00,0,-999,0,0.00
2013-8-28,88,81,74,62,57,54,65,45,31,0.00,40.00,0,-999,0,0.00
2013-8-29,81,72,68,68,65,62,93,79,56,0.00,40.00,0,-999,0,0.30
2013-8-30,84,72,64,67,64,60,94,77,46,0.00,40.00,0,-999,0,0.00
2013-8-31,92,75,60,65,59,55,94,63,30,0.00,40.00,0,-999,0,0.00
2013-9-1,94,80,62,63,56,48,91,50,22,0.00,40.00,0,-999,0,0.00
2013-9-2,95,79,64,60,56,49,78,49,22,0.00,40.00,0,-999,0,0.00
2013-9-3,91,76,60,65,57,47,90,57,21,0.00,40.00,0,-999,0,0.06
2013-9-4,94,77,56,65,46,-100,94,56,15,0.00,40.00,0,-999,0,0.01
2013-9-5,94,83,59,59,46,-100,84,34,18,0.00,40.00,0,-999,0,0.00
2013-9-6,94,82,62,58,52,46,77,39,19,0.00,40.00,0,-999,0,0.00
2013-9-7,77,70,65,64,60,57,88,72,56,0.00,40.00,0,-999,0,0.04
2013-9-8,83,69,64,65,63,60,93,83,45,0.00,40.00,0,-999,0,0.25
2013-9-9,76,68,65,66,64,62,94,88,62,0.00,40.00,0,-999,0,0.15
2013-9-10,83,70,60,63,59,56,94,72,40,0.00,40.00,0,-999,0,0.00
2013-9-11,85,70,55,60,54,46,94,63,26,0.00,40.00,0,-999,0,0.00
2013-9-12,90,72,57,64,57,54,92,64,32,0.00,40.00,0,-999,0,0.26
2013-9-13,88,73,59,67,59,48,94,66,24,0.00,40.00,0,-999,0,0.00
2013-9-14,91,74,58,63,58,51,93,62,26,0.00,40.00,0,-999,0,0.00
2013-9-15,91,78,62,60,56,50,87,49,26,0.00,40.00,0,-999,0,0.00
2013-9-16,91,78,60,61,56,51,91,50,28,0.00,40.00,0,-999,0,0.00
2013-9-20,92,75,60,59,56,50,71,53,26,0.00,40.00,0,-999,0,0.01
2013-9-21,90,78,56,59,33,-100,90,42,15,0.00,40.00,0,-999,0,0.00
2013-9-22,89,77,60,59,52,46,76,44,25,0.00,40.00,0,-999,0,0.00
2013-9-23,89,77,48,46,39,32,79,30,14,0.00,40.00,0,-999,0,0.00
2013-9-24,92,80,48,46,37,32,79,24,13,0.00,40.00,0,-999,0,0.00
2013-9-25,91,83,62,38,32,29,40,17,12,0.00,40.00,0,-999,0,0.00
2013-9-26,87,79,63,50,37,31,45,24,14,0.00,40.00,0,-999,0,0.00
2013-10-8,85,79,63,29,27,25,23,15,13,0.00,40.00,0,-999,0,0.00
2013-10-9,81,72,60,44,34,27,39,26,13,0.00,40.00,0,-999,0,0.00
2013-10-10,72,64,50,46,39,33,64,40,23,0.00,40.00,0,-999,0,0.00
2013-10-11,77,70,57,40,34,28,53,28,16,0.00,40.00,0,-999,0,0.00
2013-10-12,84,73,36,34,28,21,77,21,11,0.00,40.00,0,-999,0,0.00
2013-10-13,85,77,57,41,36,31,54,25,14,0.00,40.00,0,-999,0,0.00
2013-10-27,84,74,48,31,24,18,40,17,10,0.00,40.00,0,-999,0,0.00
2013-10-28,75,69,57,30,23,18,30,17,11,0.00,40.00,0,-999,0,0.00
2013-10-29,77,67,53,36,24,-100,52,24,13,0.00,40.00,0,-999,0,0.00
2013-10-30,72,61,46,40,33,27,64,37,21,0.00,40.00,0,-999,0,0.00
2013-10-31,71,62,25,28,18,5,81,22,9,0.00,40.00,0,-999,0,0.00
2013-11-1,76,63,26,16,14,9,48,17,9,0.00,40.00,0,-999,0,0.00
2013-11-2,81,73,40,16,14,10,34,11,7,0.00,40.00,0,-999,0,0.00
2013-11-3,78,64,49,50,42,36,76,47,24,0.00,40.00,0,-999,0,0.01
2013-11-4,76,64,39,44,37,32,82,39,20,0.00,40.00,0,-999,0,0.00
2013-11-5,71,58,45,42,35,30,69,43,21,0.00,40.00,0,-999,0,0.00
2013-11-6,71,62,36,33,24,17,71,27,14,0.00,40.00,0,-999,0,0.00
2013-11-7,76,66,35,26,22,15,43,20,13,0.00,40.00,0,-999,0,0.00
2013-11-8,78,69,44,34,30,26,48,24,17,0.00,40.00,0,-999,0,0.00
2013-11-9,78,65,34,35,30,25,68,32,17,0.00,40.00,0,-999,0,0.00
2013-11-10,82,68,34,32,29,25,69,27,13,0.00,40.00,0,-999,0,0.00
2013-11-11,83,71,45,36,32,29,51,25,15,0.00,40.00,0,-999,0,0.00
2013-11-12,78,67,47,42,40,30,51,37,28,0.00,40.00,0,-999,0,0.00
2013-11-13,72,59,45,41,39,36,69,48,30,0.00,40.00,0,-999,0,0.00
2013-11-14,78,65,44,39,33,23,66,33,13,0.00,40.00,0,-999,0,0.00
2013-11-15,70,63,44,47,40,26,63,44,32,0.00,40.00,0,-999,0,0.00
2013-11-16,74,62,50,44,37,26,66,42,16,0.00,40.00,0,-999,0,0.00
2013-11-17,73,65,40,43,36,33,77,37,25,0.00,40.00,0,-999,0,0.00
2013-11-18,76,63,46,45,35,26,67,37,20,0.00,40.00,0,-999,0,0.00
2013-11-19,79,63,34,38,27,20,76,30,11,0.00,40.00,0,-999,0,0.00
2013-11-20,77,65,46,35,27,20,46,25,12,0.00,40.00,0,-999,0,0.00
2013-11-21,70,64,50,44,41,28,54,43,30,0.00,40.00,0,-999,0,0.00
2013-11-22,65,59,51,52,46,38,90,63,46,0.00,40.00,0,-999,0,0.11
2013-11-23,52,47,44,44,40,37,90,76,61,0.00,40.00,0,-999,0,0.31
2013-11-24,55,44,33,38,35,29,86,73,50,0.00,40.00,0,-999,0,0.00
2013-11-25,56,46,25,35,31,23,93,61,40,0.00,40.00,0,-999,0,0.00
2013-11-26,59,51,30,34,23,17,88,36,23,0.00,40.00,0,-999,0,0.00
2013-11-27,58,48,35,22,19,16,56,32,21,0.00,40.00,0,-999,0,0.00
2013-11-28,69,57,29,31,28,24,81,36,21,0.00,40.00,0,-999,0,0.00
2013-11-29,74,62,35,37,34,30,81,39,22,0.00,40.00,0,-999,0,0.00
2013-11-30,74,55,37,39,19,-100,84,49,16,0.00,40.00,0,-999,0,0.00
2013-12-1,67,54,42,38,35,32,74,51,29,0.00,40.00,0,-999,0,0.00
2013-12-2,72,60,29,36,25,12,92,36,12,0.00,40.00,0,-999,0,0.00
2013-12-3,73,63,35,39,28,10,60,31,9,0.00,40.00,0,-999,0,0.00
2013-12-4,68,58,49,42,27,-100,63,43,14,0.00,40.00,0,-999,0,0.00
2013-12-5,51,42,31,40,36,30,94,80,53,0.00,40.00,0,-999,0,0.27
2013-12-6,51,38,19,29,25,17,95,65,29,0.00,40.00,0,-999,0,0.00
2013-12-7,61,41,18,29,9,-100,94,49,11,0.00,40.00,0,-999,0,0.00
2013-12-13,60,54,41,31,28,25,66,37,28,0.00,40.00,0,-999,0,0.00
2013-12-14,62,53,36,28,17,-100,67,30,15,0.00,40.00,0,-999,0,0.00
2013-12-15,67,58,37,22,16,13,53,21,12,0.00,40.00,0,-999,0,0.00
2013-12-16,74,60,25,20,4,-100,67,23,8,0.00,40.00,0,-999,0,0.00
2013-12-17,77,61,25,21,17,14,67,24,9,0.00,40.00,0,-999,0,0.00
2013-12-18,69,62,43,21,18,16,40,19,13,0.00,40.00,0,-999,0,0.00
2013-12-19,67,59,49,24,8,-100,33,18,11,0.00,40.00,0,-999,0,0.00
2013-12-20,51,44,38,40,32,19,91,65,28,0.00,40.00,0,-999,0,0.24
2013-12-21,47,42,39,36,33,29,78,68,49,0.00,40.00,0,-999,0,0.00
2013-12-22,54,45,27,36,28,20,95,55,27,0.00,40.00,0,-999,0,0.00
2013-12-23,61,48,19,30,18,-100,93,41,16,0.00,40.00,0,-999,0,0.00
2013-12-24,66,56,34,25,22,19,63,29,16,0.00,40.00,0,-999,0,0.00
2013-12-25,63,48,22,27,22,18,86,40,20,0.00,40.00,0,-999,0,0.00
2013-12-26,60,51,33,24,20,15,64,32,17,0.00,40.00,0,-999,0,0.00
2013-12-27,62,53,19,23,19,13,85,29,16,0.00,40.00,0,-999,0,0.00
2013-12-28,62,57,37,24,21,19,48,26,19,0.00,40.00,0,-999,0,0.00
2013-12-29,63,50,31,24,19,13,67,32,15,0.00,40.00,0,-999,0,0.00
2013-12-30,64,56,36,22,18,14,53,24,14,0.00,40.00,0,-999,0,0.00
2013-12-31,67,58,35,18,15,12,48,21,12,0.00,40.00,0,-999,0,0.00